sensor_id;sensor_type;location;lat;lon;timestamp;P1;durP1;ratioP1;P2;durP2;ratioP2
6999;SDS011;3540;53.242;10.408;2023-04-25T00:01:20;12.47;;;5.40;;
6999;SDS011;3540;53.242;10.408;2023-04-25T00:03:49;10.07;;;5.30;;
6999;SDS011;3540;53.242;10.408;2023-04-25T00:06:15;11.17;;;5.50;;
6999;SDS011;3540;53.242;10.408;2023-04-25T00:08:42;9.97;;;5.73;;
6999;SDS011;3540;53.242;10.408;2023-04-25T00:11:08;8.27;;;5.23;;
6999;SDS011;3540;53.242;10.408;2023-04-25T00:13:34;7.17;;;4.67;;
6999;SDS011;3540;53.242;10.408;2023-04-25T00:16:00;10.27;;;5.30;;
6999;SDS011;3540;53.242;10.408;2023-04-25T00:18:27;12.10;;;5.57;;
6999;SDS011;3540;53.242;10.408;2023-04-25T00:20:58;6.80;;;4.47;;
6999;SDS011;3540;53.242;10.408;2023-04-25T00:23:23;8.63;;;5.47;;
6999;SDS011;3540;53.242;10.408;2023-04-25T00:25:49;9.37;;;4.80;;
6999;SDS011;3540;53.242;10.408;2023-04-25T00:28:15;7.77;;;4.80;;
6999;SDS011;3540;53.242;10.408;2023-04-25T00:30:41;9.10;;;5.07;;
6999;SDS011;3540;53.242;10.408;2023-04-25T00:33:08;8.03;;;5.30;;
6999;SDS011;3540;53.242;10.408;2023-04-25T00:35:34;8.47;;;5.60;;
6999;SDS011;3540;53.242;10.408;2023-04-25T00:38:00;10.17;;;5.50;;
6999;SDS011;3540;53.242;10.408;2023-04-25T00:40:26;6.90;;;5.33;;
6999;SDS011;3540;53.242;10.408;2023-04-25T00:42:52;8.07;;;5.43;;
6999;SDS011;3540;53.242;10.408;2023-04-25T00:45:18;10.70;;;5.90;;
6999;SDS011;3540;53.242;10.408;2023-04-25T00:47:44;8.47;;;6.13;;
6999;SDS011;3540;53.242;10.408;2023-04-25T00:50:11;9.20;;;6.00;;
6999;SDS011;3540;53.242;10.408;2023-04-25T00:52:41;11.83;;;6.23;;
6999;SDS011;3540;53.242;10.408;2023-04-25T00:55:09;8.17;;;5.77;;
6999;SDS011;3540;53.242;10.408;2023-04-25T00:57:36;12.20;;;7.20;;
6999;SDS011;3540;53.242;10.408;2023-04-25T01:00:03;11.77;;;6.97;;
6999;SDS011;3540;53.242;10.408;2023-04-25T01:02:31;11.73;;;7.40;;
6999;SDS011;3540;53.242;10.408;2023-04-25T01:04:58;9.27;;;6.70;;
6999;SDS011;3540;53.242;10.408;2023-04-25T01:07:24;12.37;;;7.47;;
6999;SDS011;3540;53.242;10.408;2023-04-25T01:09:51;11.37;;;7.13;;
6999;SDS011;3540;53.242;10.408;2023-04-25T01:12:17;10.77;;;7.40;;
6999;SDS011;3540;53.242;10.408;2023-04-25T01:14:43;12.00;;;7.40;;
6999;SDS011;3540;53.242;10.408;2023-04-25T01:17:09;11.33;;;7.17;;
6999;SDS011;3540;53.242;10.408;2023-04-25T01:19:35;10.67;;;6.40;;
6999;SDS011;3540;53.242;10.408;2023-04-25T01:22:01;11.70;;;5.67;;
6999;SDS011;3540;53.242;10.408;2023-04-25T01:24:26;12.07;;;5.60;;
6999;SDS011;3540;53.242;10.408;2023-04-25T01:26:53;11.47;;;4.93;;
6999;SDS011;3540;53.242;10.408;2023-04-25T01:32:43;13.07;;;5.70;;
6999;SDS011;3540;53.242;10.408;2023-04-25T01:35:11;11.80;;;5.10;;
6999;SDS011;3540;53.242;10.408;2023-04-25T01:37:37;15.20;;;4.67;;
6999;SDS011;3540;53.242;10.408;2023-04-25T01:40:04;13.10;;;4.80;;
6999;SDS011;3540;53.242;10.408;2023-04-25T01:42:31;17.57;;;5.53;;
6999;SDS011;3540;53.242;10.408;2023-04-25T01:44:58;18.00;;;4.87;;
6999;SDS011;3540;53.242;10.408;2023-04-25T01:47:23;22.63;;;4.80;;
6999;SDS011;3540;53.242;10.408;2023-04-25T01:49:49;14.33;;;4.57;;
6999;SDS011;3540;53.242;10.408;2023-04-25T01:52:15;16.30;;;4.90;;
6999;SDS011;3540;53.242;10.408;2023-04-25T01:54:40;17.77;;;4.70;;
6999;SDS011;3540;53.242;10.408;2023-04-25T01:57:09;19.83;;;4.77;;
6999;SDS011;3540;53.242;10.408;2023-04-25T01:59:36;25.57;;;5.57;;
6999;SDS011;3540;53.242;10.408;2023-04-25T02:02:02;20.73;;;4.77;;
6999;SDS011;3540;53.242;10.408;2023-04-25T02:04:30;25.50;;;4.83;;
6999;SDS011;3540;53.242;10.408;2023-04-25T02:06:56;24.17;;;4.93;;
6999;SDS011;3540;53.242;10.408;2023-04-25T02:09:22;31.37;;;5.60;;
6999;SDS011;3540;53.242;10.408;2023-04-25T02:14:36;25.17;;;5.20;;
6999;SDS011;3540;53.242;10.408;2023-04-25T02:17:01;27.23;;;5.17;;
6999;SDS011;3540;53.242;10.408;2023-04-25T02:19:27;25.57;;;5.30;;
6999;SDS011;3540;53.242;10.408;2023-04-25T02:21:53;26.73;;;5.07;;
6999;SDS011;3540;53.242;10.408;2023-04-25T02:24:19;29.87;;;5.20;;
6999;SDS011;3540;53.242;10.408;2023-04-25T02:26:45;26.07;;;5.13;;
6999;SDS011;3540;53.242;10.408;2023-04-25T02:29:11;29.43;;;5.47;;
6999;SDS011;3540;53.242;10.408;2023-04-25T02:31:37;26.53;;;5.93;;
6999;SDS011;3540;53.242;10.408;2023-04-25T02:34:03;27.10;;;5.00;;
6999;SDS011;3540;53.242;10.408;2023-04-25T02:36:29;24.43;;;5.30;;
6999;SDS011;3540;53.242;10.408;2023-04-25T02:38:57;28.33;;;5.53;;
6999;SDS011;3540;53.242;10.408;2023-04-25T02:41:22;28.30;;;5.50;;
6999;SDS011;3540;53.242;10.408;2023-04-25T02:43:48;31.57;;;5.00;;
6999;SDS011;3540;53.242;10.408;2023-04-25T02:46:14;25.73;;;4.87;;
6999;SDS011;3540;53.242;10.408;2023-04-25T02:48:39;24.27;;;5.93;;
6999;SDS011;3540;53.242;10.408;2023-04-25T02:51:05;28.73;;;5.33;;
6999;SDS011;3540;53.242;10.408;2023-04-25T02:53:31;26.50;;;4.90;;
6999;SDS011;3540;53.242;10.408;2023-04-25T02:55:56;30.60;;;5.87;;
6999;SDS011;3540;53.242;10.408;2023-04-25T02:58:24;21.77;;;5.57;;
6999;SDS011;3540;53.242;10.408;2023-04-25T03:00:49;27.77;;;5.30;;
6999;SDS011;3540;53.242;10.408;2023-04-25T03:03:15;29.57;;;6.07;;
6999;SDS011;3540;53.242;10.408;2023-04-25T03:05:43;18.20;;;4.40;;
6999;SDS011;3540;53.242;10.408;2023-04-25T03:08:09;27.87;;;5.23;;
6999;SDS011;3540;53.242;10.408;2023-04-25T03:10:34;33.40;;;5.43;;
6999;SDS011;3540;53.242;10.408;2023-04-25T03:13:00;22.80;;;4.97;;
6999;SDS011;3540;53.242;10.408;2023-04-25T03:15:25;27.07;;;5.40;;
6999;SDS011;3540;53.242;10.408;2023-04-25T03:17:51;30.37;;;5.77;;
6999;SDS011;3540;53.242;10.408;2023-04-25T03:20:17;28.57;;;5.53;;
6999;SDS011;3540;53.242;10.408;2023-04-25T03:22:43;20.80;;;4.23;;
6999;SDS011;3540;53.242;10.408;2023-04-25T03:25:09;21.03;;;4.27;;
6999;SDS011;3540;53.242;10.408;2023-04-25T03:27:35;39.13;;;6.40;;
6999;SDS011;3540;53.242;10.408;2023-04-25T03:30:01;25.20;;;5.10;;
6999;SDS011;3540;53.242;10.408;2023-04-25T03:32:26;31.03;;;5.43;;
6999;SDS011;3540;53.242;10.408;2023-04-25T03:34:52;26.00;;;6.07;;
6999;SDS011;3540;53.242;10.408;2023-04-25T03:37:18;23.30;;;5.33;;
6999;SDS011;3540;53.242;10.408;2023-04-25T03:39:43;23.67;;;4.70;;
6999;SDS011;3540;53.242;10.408;2023-04-25T03:42:09;29.20;;;4.83;;
6999;SDS011;3540;53.242;10.408;2023-04-25T03:44:35;28.30;;;5.27;;
6999;SDS011;3540;53.242;10.408;2023-04-25T03:47:00;32.73;;;5.67;;
6999;SDS011;3540;53.242;10.408;2023-04-25T03:49:26;21.90;;;5.40;;
6999;SDS011;3540;53.242;10.408;2023-04-25T03:51:51;24.57;;;5.43;;
6999;SDS011;3540;53.242;10.408;2023-04-25T03:54:17;24.03;;;5.10;;
6999;SDS011;3540;53.242;10.408;2023-04-25T03:56:43;21.67;;;4.33;;
6999;SDS011;3540;53.242;10.408;2023-04-25T03:59:08;27.23;;;5.30;;
6999;SDS011;3540;53.242;10.408;2023-04-25T04:01:34;29.43;;;5.77;;
6999;SDS011;3540;53.242;10.408;2023-04-25T04:04:00;25.03;;;5.13;;
6999;SDS011;3540;53.242;10.408;2023-04-25T04:06:26;23.93;;;5.20;;
6999;SDS011;3540;53.242;10.408;2023-04-25T04:08:51;30.37;;;5.60;;
6999;SDS011;3540;53.242;10.408;2023-04-25T04:11:17;21.63;;;5.53;;
6999;SDS011;3540;53.242;10.408;2023-04-25T04:13:43;34.90;;;6.63;;
6999;SDS011;3540;53.242;10.408;2023-04-25T04:16:08;23.90;;;5.90;;
6999;SDS011;3540;53.242;10.408;2023-04-25T04:18:34;21.17;;;4.37;;
6999;SDS011;3540;53.242;10.408;2023-04-25T04:21:00;24.63;;;5.60;;
6999;SDS011;3540;53.242;10.408;2023-04-25T04:23:26;29.27;;;5.57;;
6999;SDS011;3540;53.242;10.408;2023-04-25T04:25:53;27.87;;;5.87;;
6999;SDS011;3540;53.242;10.408;2023-04-25T04:28:21;28.77;;;4.87;;
6999;SDS011;3540;53.242;10.408;2023-04-25T04:30:46;32.40;;;5.17;;
6999;SDS011;3540;53.242;10.408;2023-04-25T04:33:12;33.20;;;6.47;;
6999;SDS011;3540;53.242;10.408;2023-04-25T04:35:40;23.27;;;5.23;;
6999;SDS011;3540;53.242;10.408;2023-04-25T04:38:06;28.80;;;4.83;;
6999;SDS011;3540;53.242;10.408;2023-04-25T04:40:32;23.90;;;5.53;;
6999;SDS011;3540;53.242;10.408;2023-04-25T04:42:57;29.33;;;5.27;;
6999;SDS011;3540;53.242;10.408;2023-04-25T04:45:23;29.87;;;5.60;;
6999;SDS011;3540;53.242;10.408;2023-04-25T04:47:49;26.20;;;5.57;;
6999;SDS011;3540;53.242;10.408;2023-04-25T04:50:15;27.90;;;4.77;;
6999;SDS011;3540;53.242;10.408;2023-04-25T04:52:41;24.73;;;5.03;;
6999;SDS011;3540;53.242;10.408;2023-04-25T04:55:07;28.07;;;5.80;;
6999;SDS011;3540;53.242;10.408;2023-04-25T04:57:34;27.93;;;5.57;;
6999;SDS011;3540;53.242;10.408;2023-04-25T05:00:00;25.03;;;5.00;;
6999;SDS011;3540;53.242;10.408;2023-04-25T05:02:26;27.37;;;4.83;;
6999;SDS011;3540;53.242;10.408;2023-04-25T05:04:52;25.27;;;4.57;;
6999;SDS011;3540;53.242;10.408;2023-04-25T05:07:18;22.57;;;4.37;;
6999;SDS011;3540;53.242;10.408;2023-04-25T05:09:44;21.20;;;4.97;;
6999;SDS011;3540;53.242;10.408;2023-04-25T05:12:10;22.00;;;5.17;;
6999;SDS011;3540;53.242;10.408;2023-04-25T05:14:35;23.93;;;4.60;;
6999;SDS011;3540;53.242;10.408;2023-04-25T05:17:01;24.50;;;4.50;;
6999;SDS011;3540;53.242;10.408;2023-04-25T05:19:29;23.67;;;4.23;;
6999;SDS011;3540;53.242;10.408;2023-04-25T05:21:55;24.33;;;4.70;;
6999;SDS011;3540;53.242;10.408;2023-04-25T05:24:21;23.30;;;4.47;;
6999;SDS011;3540;53.242;10.408;2023-04-25T05:26:46;22.30;;;4.63;;
6999;SDS011;3540;53.242;10.408;2023-04-25T05:29:12;23.23;;;4.13;;
6999;SDS011;3540;53.242;10.408;2023-04-25T05:31:37;24.20;;;5.17;;
6999;SDS011;3540;53.242;10.408;2023-04-25T05:34:03;16.37;;;4.10;;
6999;SDS011;3540;53.242;10.408;2023-04-25T05:36:29;20.77;;;3.67;;
6999;SDS011;3540;53.242;10.408;2023-04-25T05:38:55;23.53;;;4.80;;
6999;SDS011;3540;53.242;10.408;2023-04-25T05:41:21;22.47;;;4.07;;
6999;SDS011;3540;53.242;10.408;2023-04-25T05:43:47;20.70;;;3.83;;
6999;SDS011;3540;53.242;10.408;2023-04-25T05:46:14;20.77;;;4.17;;
6999;SDS011;3540;53.242;10.408;2023-04-25T05:48:42;15.93;;;4.07;;
6999;SDS011;3540;53.242;10.408;2023-04-25T05:51:07;17.80;;;4.07;;
6999;SDS011;3540;53.242;10.408;2023-04-25T05:53:33;22.53;;;4.30;;
6999;SDS011;3540;53.242;10.408;2023-04-25T05:55:59;14.23;;;3.50;;
6999;SDS011;3540;53.242;10.408;2023-04-25T05:58:25;19.03;;;4.00;;
6999;SDS011;3540;53.242;10.408;2023-04-25T06:00:51;18.93;;;4.07;;
6999;SDS011;3540;53.242;10.408;2023-04-25T06:03:16;21.87;;;4.57;;
6999;SDS011;3540;53.242;10.408;2023-04-25T06:05:42;26.00;;;4.47;;
6999;SDS011;3540;53.242;10.408;2023-04-25T06:08:08;16.83;;;4.10;;
6999;SDS011;3540;53.242;10.408;2023-04-25T06:10:35;18.17;;;3.70;;
6999;SDS011;3540;53.242;10.408;2023-04-25T06:13:01;17.57;;;3.47;;
6999;SDS011;3540;53.242;10.408;2023-04-25T06:15:27;19.93;;;3.80;;
6999;SDS011;3540;53.242;10.408;2023-04-25T06:17:53;19.53;;;3.67;;
6999;SDS011;3540;53.242;10.408;2023-04-25T06:20:18;16.63;;;3.67;;
6999;SDS011;3540;53.242;10.408;2023-04-25T06:22:48;19.13;;;4.17;;
6999;SDS011;3540;53.242;10.408;2023-04-25T06:25:14;15.53;;;3.40;;
6999;SDS011;3540;53.242;10.408;2023-04-25T06:27:40;21.83;;;3.70;;
6999;SDS011;3540;53.242;10.408;2023-04-25T06:30:05;23.03;;;4.30;;
6999;SDS011;3540;53.242;10.408;2023-04-25T06:32:32;15.83;;;3.83;;
6999;SDS011;3540;53.242;10.408;2023-04-25T06:34:59;22.47;;;3.73;;
6999;SDS011;3540;53.242;10.408;2023-04-25T06:37:25;18.60;;;3.57;;
6999;SDS011;3540;53.242;10.408;2023-04-25T06:39:50;20.17;;;3.80;;
6999;SDS011;3540;53.242;10.408;2023-04-25T06:42:16;16.50;;;3.63;;
6999;SDS011;3540;53.242;10.408;2023-04-25T06:44:42;23.97;;;4.10;;
6999;SDS011;3540;53.242;10.408;2023-04-25T06:47:08;22.00;;;3.87;;
6999;SDS011;3540;53.242;10.408;2023-04-25T06:49:33;20.23;;;4.03;;
6999;SDS011;3540;53.242;10.408;2023-04-25T06:51:59;20.63;;;3.97;;
6999;SDS011;3540;53.242;10.408;2023-04-25T06:54:25;13.97;;;3.70;;
6999;SDS011;3540;53.242;10.408;2023-04-25T06:56:52;14.77;;;3.77;;
6999;SDS011;3540;53.242;10.408;2023-04-25T06:59:18;13.97;;;3.37;;
6999;SDS011;3540;53.242;10.408;2023-04-25T07:01:44;16.37;;;3.60;;
6999;SDS011;3540;53.242;10.408;2023-04-25T07:04:10;18.93;;;3.77;;
6999;SDS011;3540;53.242;10.408;2023-04-25T07:06:36;17.67;;;3.37;;
6999;SDS011;3540;53.242;10.408;2023-04-25T07:09:07;12.50;;;3.23;;
6999;SDS011;3540;53.242;10.408;2023-04-25T07:11:33;19.43;;;3.90;;
6999;SDS011;3540;53.242;10.408;2023-04-25T07:13:59;11.83;;;3.10;;
6999;SDS011;3540;53.242;10.408;2023-04-25T07:16:24;15.40;;;3.73;;
6999;SDS011;3540;53.242;10.408;2023-04-25T07:18:50;17.30;;;3.60;;
6999;SDS011;3540;53.242;10.408;2023-04-25T07:21:16;14.30;;;3.53;;
6999;SDS011;3540;53.242;10.408;2023-04-25T07:23:41;17.50;;;3.10;;
6999;SDS011;3540;53.242;10.408;2023-04-25T07:26:07;21.60;;;3.57;;
6999;SDS011;3540;53.242;10.408;2023-04-25T07:28:33;17.37;;;3.60;;
6999;SDS011;3540;53.242;10.408;2023-04-25T07:30:58;16.03;;;4.00;;
6999;SDS011;3540;53.242;10.408;2023-04-25T07:33:24;15.07;;;3.43;;
6999;SDS011;3540;53.242;10.408;2023-04-25T07:35:49;21.07;;;3.80;;
6999;SDS011;3540;53.242;10.408;2023-04-25T07:38:15;13.60;;;3.60;;
6999;SDS011;3540;53.242;10.408;2023-04-25T07:40:41;18.33;;;3.80;;
6999;SDS011;3540;53.242;10.408;2023-04-25T07:43:07;26.47;;;4.13;;
6999;SDS011;3540;53.242;10.408;2023-04-25T07:45:32;16.73;;;3.50;;
6999;SDS011;3540;53.242;10.408;2023-04-25T07:47:58;18.97;;;4.63;;
6999;SDS011;3540;53.242;10.408;2023-04-25T07:50:23;15.57;;;3.23;;
6999;SDS011;3540;53.242;10.408;2023-04-25T07:52:49;16.57;;;3.30;;
6999;SDS011;3540;53.242;10.408;2023-04-25T07:55:15;15.30;;;3.50;;
6999;SDS011;3540;53.242;10.408;2023-04-25T07:57:41;17.13;;;3.87;;
6999;SDS011;3540;53.242;10.408;2023-04-25T08:00:07;11.53;;;3.07;;
6999;SDS011;3540;53.242;10.408;2023-04-25T08:02:36;14.53;;;3.50;;
6999;SDS011;3540;53.242;10.408;2023-04-25T08:05:02;13.43;;;3.43;;
6999;SDS011;3540;53.242;10.408;2023-04-25T08:07:28;11.10;;;2.90;;
6999;SDS011;3540;53.242;10.408;2023-04-25T08:09:54;8.73;;;2.80;;
6999;SDS011;3540;53.242;10.408;2023-04-25T08:12:19;9.37;;;2.67;;
6999;SDS011;3540;53.242;10.408;2023-04-25T08:14:45;13.20;;;3.10;;
6999;SDS011;3540;53.242;10.408;2023-04-25T08:17:11;11.93;;;2.60;;
6999;SDS011;3540;53.242;10.408;2023-04-25T08:19:36;12.93;;;3.00;;
6999;SDS011;3540;53.242;10.408;2023-04-25T08:22:02;10.47;;;3.20;;
6999;SDS011;3540;53.242;10.408;2023-04-25T08:24:28;12.30;;;3.07;;
6999;SDS011;3540;53.242;10.408;2023-04-25T08:26:53;11.77;;;2.20;;
6999;SDS011;3540;53.242;10.408;2023-04-25T08:29:19;9.87;;;2.77;;
6999;SDS011;3540;53.242;10.408;2023-04-25T08:31:45;12.37;;;3.10;;
6999;SDS011;3540;53.242;10.408;2023-04-25T08:34:11;8.07;;;2.37;;
6999;SDS011;3540;53.242;10.408;2023-04-25T08:36:36;10.00;;;2.53;;
6999;SDS011;3540;53.242;10.408;2023-04-25T08:39:02;9.70;;;2.97;;
6999;SDS011;3540;53.242;10.408;2023-04-25T08:41:28;9.73;;;2.27;;
6999;SDS011;3540;53.242;10.408;2023-04-25T08:43:54;11.30;;;2.50;;
6999;SDS011;3540;53.242;10.408;2023-04-25T08:46:22;8.07;;;2.57;;
6999;SDS011;3540;53.242;10.408;2023-04-25T08:48:48;10.90;;;2.70;;
6999;SDS011;3540;53.242;10.408;2023-04-25T08:51:20;8.80;;;2.43;;
6999;SDS011;3540;53.242;10.408;2023-04-25T08:53:51;7.73;;;2.37;;
6999;SDS011;3540;53.242;10.408;2023-04-25T08:56:17;8.17;;;2.10;;
6999;SDS011;3540;53.242;10.408;2023-04-25T08:58:45;8.57;;;2.30;;
6999;SDS011;3540;53.242;10.408;2023-04-25T09:01:14;11.73;;;2.50;;
6999;SDS011;3540;53.242;10.408;2023-04-25T09:03:40;7.90;;;2.30;;
6999;SDS011;3540;53.242;10.408;2023-04-25T09:06:10;9.47;;;2.33;;
6999;SDS011;3540;53.242;10.408;2023-04-25T09:08:37;24.47;;;3.73;;
6999;SDS011;3540;53.242;10.408;2023-04-25T09:11:05;13.37;;;2.53;;
6999;SDS011;3540;53.242;10.408;2023-04-25T09:13:31;11.10;;;2.63;;
6999;SDS011;3540;53.242;10.408;2023-04-25T09:15:57;8.13;;;2.40;;
6999;SDS011;3540;53.242;10.408;2023-04-25T09:18:27;16.37;;;2.93;;
6999;SDS011;3540;53.242;10.408;2023-04-25T09:20:55;8.97;;;2.37;;
6999;SDS011;3540;53.242;10.408;2023-04-25T09:23:23;11.83;;;2.63;;
6999;SDS011;3540;53.242;10.408;2023-04-25T09:25:50;12.03;;;2.60;;
6999;SDS011;3540;53.242;10.408;2023-04-25T09:28:26;10.87;;;2.60;;
6999;SDS011;3540;53.242;10.408;2023-04-25T09:30:55;8.03;;;2.10;;
6999;SDS011;3540;53.242;10.408;2023-04-25T09:33:31;12.93;;;2.80;;
6999;SDS011;3540;53.242;10.408;2023-04-25T09:36:08;9.13;;;2.00;;
6999;SDS011;3540;53.242;10.408;2023-04-25T09:38:40;6.13;;;2.00;;
6999;SDS011;3540;53.242;10.408;2023-04-25T09:41:07;5.30;;;1.67;;
6999;SDS011;3540;53.242;10.408;2023-04-25T09:43:34;7.00;;;1.60;;
6999;SDS011;3540;53.242;10.408;2023-04-25T09:46:10;8.83;;;2.10;;
6999;SDS011;3540;53.242;10.408;2023-04-25T09:48:36;4.80;;;1.73;;
6999;SDS011;3540;53.242;10.408;2023-04-25T09:53:28;7.30;;;2.10;;
6999;SDS011;3540;53.242;10.408;2023-04-25T09:55:55;7.63;;;2.17;;
6999;SDS011;3540;53.242;10.408;2023-04-25T09:58:21;9.03;;;2.07;;
6999;SDS011;3540;53.242;10.408;2023-04-25T10:00:49;8.43;;;2.00;;
6999;SDS011;3540;53.242;10.408;2023-04-25T10:03:16;11.93;;;2.00;;
6999;SDS011;3540;53.242;10.408;2023-04-25T10:05:42;6.97;;;1.83;;
6999;SDS011;3540;53.242;10.408;2023-04-25T10:08:08;4.93;;;1.50;;
6999;SDS011;3540;53.242;10.408;2023-04-25T10:10:35;7.90;;;1.93;;
6999;SDS011;3540;53.242;10.408;2023-04-25T10:13:03;6.13;;;1.70;;
6999;SDS011;3540;53.242;10.408;2023-04-25T10:15:32;8.57;;;1.77;;
6999;SDS011;3540;53.242;10.408;2023-04-25T10:18:00;6.00;;;2.10;;
6999;SDS011;3540;53.242;10.408;2023-04-25T10:20:26;7.57;;;1.90;;
6999;SDS011;3540;53.242;10.408;2023-04-25T10:22:55;7.50;;;2.03;;
6999;SDS011;3540;53.242;10.408;2023-04-25T10:25:31;9.20;;;1.93;;
6999;SDS011;3540;53.242;10.408;2023-04-25T10:27:56;5.13;;;1.80;;
6999;SDS011;3540;53.242;10.408;2023-04-25T10:30:25;10.20;;;2.10;;
6999;SDS011;3540;53.242;10.408;2023-04-25T10:32:51;5.57;;;1.80;;
6999;SDS011;3540;53.242;10.408;2023-04-25T10:35:24;7.50;;;1.80;;
6999;SDS011;3540;53.242;10.408;2023-04-25T10:38:05;11.10;;;2.23;;
6999;SDS011;3540;53.242;10.408;2023-04-25T10:40:31;4.83;;;1.63;;
6999;SDS011;3540;53.242;10.408;2023-04-25T10:46:13;5.70;;;1.80;;
6999;SDS011;3540;53.242;10.408;2023-04-25T10:48:56;5.77;;;2.10;;
6999;SDS011;3540;53.242;10.408;2023-04-25T10:51:28;10.07;;;2.33;;
6999;SDS011;3540;53.242;10.408;2023-04-25T10:54:00;11.10;;;1.97;;
6999;SDS011;3540;53.242;10.408;2023-04-25T10:59:04;6.37;;;1.93;;
6999;SDS011;3540;53.242;10.408;2023-04-25T11:01:38;4.93;;;2.00;;
6999;SDS011;3540;53.242;10.408;2023-04-25T11:10:02;14.13;;;2.13;;
6999;SDS011;3540;53.242;10.408;2023-04-25T11:12:29;7.40;;;2.20;;
6999;SDS011;3540;53.242;10.408;2023-04-25T11:15:00;7.33;;;1.93;;
6999;SDS011;3540;53.242;10.408;2023-04-25T11:17:27;15.80;;;2.80;;
6999;SDS011;3540;53.242;10.408;2023-04-25T11:19:53;6.93;;;1.80;;
6999;SDS011;3540;53.242;10.408;2023-04-25T11:22:19;7.87;;;2.03;;
6999;SDS011;3540;53.242;10.408;2023-04-25T11:24:46;6.73;;;2.00;;
6999;SDS011;3540;53.242;10.408;2023-04-25T11:27:12;12.57;;;2.60;;
6999;SDS011;3540;53.242;10.408;2023-04-25T11:29:38;8.93;;;2.27;;
6999;SDS011;3540;53.242;10.408;2023-04-25T11:32:03;6.33;;;2.00;;
6999;SDS011;3540;53.242;10.408;2023-04-25T11:34:30;6.17;;;1.90;;
6999;SDS011;3540;53.242;10.408;2023-04-25T11:36:58;8.50;;;2.00;;
6999;SDS011;3540;53.242;10.408;2023-04-25T11:39:24;10.13;;;2.13;;
6999;SDS011;3540;53.242;10.408;2023-04-25T11:41:51;5.60;;;2.23;;
6999;SDS011;3540;53.242;10.408;2023-04-25T11:44:17;11.27;;;2.10;;
6999;SDS011;3540;53.242;10.408;2023-04-25T11:46:43;6.60;;;1.97;;
6999;SDS011;3540;53.242;10.408;2023-04-25T11:49:09;9.03;;;2.03;;
6999;SDS011;3540;53.242;10.408;2023-04-25T11:51:39;7.07;;;1.83;;
6999;SDS011;3540;53.242;10.408;2023-04-25T11:54:05;9.60;;;2.03;;
6999;SDS011;3540;53.242;10.408;2023-04-25T11:56:31;7.17;;;2.10;;
6999;SDS011;3540;53.242;10.408;2023-04-25T11:59:01;10.37;;;2.00;;
6999;SDS011;3540;53.242;10.408;2023-04-25T12:01:28;13.40;;;2.23;;
6999;SDS011;3540;53.242;10.408;2023-04-25T12:03:56;8.27;;;2.17;;
6999;SDS011;3540;53.242;10.408;2023-04-25T12:06:25;7.40;;;1.87;;
6999;SDS011;3540;53.242;10.408;2023-04-25T12:09:03;6.27;;;1.73;;
6999;SDS011;3540;53.242;10.408;2023-04-25T12:11:32;4.83;;;1.60;;
6999;SDS011;3540;53.242;10.408;2023-04-25T12:14:04;7.60;;;2.13;;
6999;SDS011;3540;53.242;10.408;2023-04-25T12:16:42;6.53;;;1.73;;
6999;SDS011;3540;53.242;10.408;2023-04-25T12:19:08;7.27;;;2.00;;
6999;SDS011;3540;53.242;10.408;2023-04-25T12:21:35;7.60;;;2.07;;
6999;SDS011;3540;53.242;10.408;2023-04-25T12:24:13;11.63;;;2.07;;
6999;SDS011;3540;53.242;10.408;2023-04-25T12:29:30;6.53;;;1.73;;
6999;SDS011;3540;53.242;10.408;2023-04-25T12:31:57;7.53;;;1.97;;
6999;SDS011;3540;53.242;10.408;2023-04-25T12:34:23;7.23;;;2.00;;
6999;SDS011;3540;53.242;10.408;2023-04-25T12:36:50;7.13;;;1.80;;
6999;SDS011;3540;53.242;10.408;2023-04-25T12:39:23;8.17;;;1.90;;
6999;SDS011;3540;53.242;10.408;2023-04-25T12:41:52;6.20;;;2.00;;
6999;SDS011;3540;53.242;10.408;2023-04-25T12:44:19;5.40;;;2.00;;
6999;SDS011;3540;53.242;10.408;2023-04-25T12:46:45;9.53;;;2.40;;
6999;SDS011;3540;53.242;10.408;2023-04-25T12:49:11;4.87;;;1.83;;
6999;SDS011;3540;53.242;10.408;2023-04-25T12:51:37;7.07;;;1.93;;
6999;SDS011;3540;53.242;10.408;2023-04-25T12:54:03;6.87;;;1.63;;
6999;SDS011;3540;53.242;10.408;2023-04-25T12:56:30;10.47;;;2.10;;
6999;SDS011;3540;53.242;10.408;2023-04-25T12:58:56;13.63;;;2.27;;
6999;SDS011;3540;53.242;10.408;2023-04-25T13:01:22;6.53;;;2.00;;
6999;SDS011;3540;53.242;10.408;2023-04-25T13:03:48;12.30;;;2.30;;
6999;SDS011;3540;53.242;10.408;2023-04-25T13:06:14;11.17;;;2.00;;
6999;SDS011;3540;53.242;10.408;2023-04-25T13:08:41;7.53;;;1.90;;
6999;SDS011;3540;53.242;10.408;2023-04-25T13:11:07;6.57;;;1.70;;
6999;SDS011;3540;53.242;10.408;2023-04-25T13:13:33;7.07;;;1.80;;
6999;SDS011;3540;53.242;10.408;2023-04-25T13:16:03;6.37;;;1.83;;
6999;SDS011;3540;53.242;10.408;2023-04-25T13:18:30;7.67;;;1.70;;
6999;SDS011;3540;53.242;10.408;2023-04-25T13:20:56;10.10;;;2.40;;
6999;SDS011;3540;53.242;10.408;2023-04-25T13:23:22;9.40;;;2.13;;
6999;SDS011;3540;53.242;10.408;2023-04-25T13:25:50;9.30;;;1.97;;
6999;SDS011;3540;53.242;10.408;2023-04-25T13:28:15;5.23;;;1.80;;
6999;SDS011;3540;53.242;10.408;2023-04-25T13:30:42;7.47;;;1.80;;
6999;SDS011;3540;53.242;10.408;2023-04-25T13:33:08;4.23;;;1.60;;
6999;SDS011;3540;53.242;10.408;2023-04-25T13:35:35;8.23;;;1.67;;
6999;SDS011;3540;53.242;10.408;2023-04-25T13:38:02;9.07;;;1.77;;
6999;SDS011;3540;53.242;10.408;2023-04-25T13:40:28;4.23;;;1.50;;
6999;SDS011;3540;53.242;10.408;2023-04-25T13:42:54;5.93;;;2.00;;
6999;SDS011;3540;53.242;10.408;2023-04-25T13:45:20;5.83;;;1.80;;
6999;SDS011;3540;53.242;10.408;2023-04-25T13:47:47;6.60;;;1.70;;
6999;SDS011;3540;53.242;10.408;2023-04-25T13:50:13;5.30;;;1.70;;
6999;SDS011;3540;53.242;10.408;2023-04-25T13:52:39;5.43;;;1.50;;
6999;SDS011;3540;53.242;10.408;2023-04-25T13:55:05;7.47;;;1.90;;
6999;SDS011;3540;53.242;10.408;2023-04-25T13:57:32;5.90;;;1.90;;
6999;SDS011;3540;53.242;10.408;2023-04-25T13:59:58;4.80;;;1.80;;
6999;SDS011;3540;53.242;10.408;2023-04-25T14:02:24;4.67;;;1.70;;
6999;SDS011;3540;53.242;10.408;2023-04-25T14:04:50;3.57;;;1.50;;
6999;SDS011;3540;53.242;10.408;2023-04-25T14:07:16;7.10;;;2.03;;
6999;SDS011;3540;53.242;10.408;2023-04-25T14:09:43;5.57;;;1.77;;
6999;SDS011;3540;53.242;10.408;2023-04-25T14:12:09;5.47;;;2.17;;
6999;SDS011;3540;53.242;10.408;2023-04-25T14:14:35;5.00;;;2.03;;
6999;SDS011;3540;53.242;10.408;2023-04-25T14:17:00;5.57;;;2.07;;
6999;SDS011;3540;53.242;10.408;2023-04-25T14:19:26;6.27;;;1.70;;
6999;SDS011;3540;53.242;10.408;2023-04-25T14:21:53;10.23;;;2.10;;
6999;SDS011;3540;53.242;10.408;2023-04-25T14:24:19;11.53;;;2.00;;
6999;SDS011;3540;53.242;10.408;2023-04-25T14:26:45;6.90;;;2.33;;
6999;SDS011;3540;53.242;10.408;2023-04-25T14:29:11;5.83;;;1.83;;
6999;SDS011;3540;53.242;10.408;2023-04-25T14:31:37;8.13;;;1.90;;
6999;SDS011;3540;53.242;10.408;2023-04-25T14:34:04;8.23;;;2.20;;
6999;SDS011;3540;53.242;10.408;2023-04-25T14:36:30;9.60;;;2.00;;
6999;SDS011;3540;53.242;10.408;2023-04-25T14:38:57;5.17;;;2.20;;
6999;SDS011;3540;53.242;10.408;2023-04-25T14:41:23;7.67;;;2.00;;
6999;SDS011;3540;53.242;10.408;2023-04-25T14:43:49;10.00;;;2.27;;
6999;SDS011;3540;53.242;10.408;2023-04-25T14:46:15;6.57;;;1.90;;
6999;SDS011;3540;53.242;10.408;2023-04-25T14:48:41;5.77;;;1.93;;
6999;SDS011;3540;53.242;10.408;2023-04-25T14:51:07;8.67;;;2.20;;
6999;SDS011;3540;53.242;10.408;2023-04-25T14:53:33;8.23;;;1.83;;
6999;SDS011;3540;53.242;10.408;2023-04-25T14:55:58;6.17;;;1.70;;
6999;SDS011;3540;53.242;10.408;2023-04-25T14:58:24;8.60;;;2.30;;
6999;SDS011;3540;53.242;10.408;2023-04-25T15:00:50;6.57;;;2.17;;
6999;SDS011;3540;53.242;10.408;2023-04-25T15:03:18;10.40;;;2.00;;
6999;SDS011;3540;53.242;10.408;2023-04-25T15:05:43;8.67;;;2.10;;
6999;SDS011;3540;53.242;10.408;2023-04-25T15:08:09;8.87;;;2.00;;
6999;SDS011;3540;53.242;10.408;2023-04-25T15:10:35;6.77;;;2.03;;
6999;SDS011;3540;53.242;10.408;2023-04-25T15:13:01;6.83;;;2.20;;